sensor_id;sensor_type;location;lat;lon;timestamp;temperature;humidity
67942;SHT31;54731;42.600;23.476;2023-06-14T00:01:46;15.71;85.36
67942;SHT31;54731;42.600;23.476;2023-06-14T00:04:14;15.73;85.50
67942;SHT31;54731;42.600;23.476;2023-06-14T00:06:39;15.71;85.43
67942;SHT31;54731;42.600;23.476;2023-06-14T00:09:05;15.74;85.47
67942;SHT31;54731;42.600;23.476;2023-06-14T00:11:31;15.74;85.45
67942;SHT31;54731;42.600;23.476;2023-06-14T00:13:56;15.74;85.54
67942;SHT31;54731;42.600;23.476;2023-06-14T00:16:22;15.73;85.39
67942;SHT31;54731;42.600;23.476;2023-06-14T00:18:47;15.73;85.54
67942;SHT31;54731;42.600;23.476;2023-06-14T00:21:12;15.70;85.62
67942;SHT31;54731;42.600;23.476;2023-06-14T00:23:38;15.70;85.71
67942;SHT31;54731;42.600;23.476;2023-06-14T00:26:03;15.70;85.57
67942;SHT31;54731;42.600;23.476;2023-06-14T00:28:28;15.71;85.51
67942;SHT31;54731;42.600;23.476;2023-06-14T00:30:54;15.73;85.47
67942;SHT31;54731;42.600;23.476;2023-06-14T00:33:19;15.73;85.40
67942;SHT31;54731;42.600;23.476;2023-06-14T00:35:44;15.76;85.41
67942;SHT31;54731;42.600;23.476;2023-06-14T00:38:10;15.76;85.46
67942;SHT31;54731;42.600;23.476;2023-06-14T00:40:35;15.80;85.50
67942;SHT31;54731;42.600;23.476;2023-06-14T00:43:00;15.77;85.43
67942;SHT31;54731;42.600;23.476;2023-06-14T00:45:26;15.76;85.50
67942;SHT31;54731;42.600;23.476;2023-06-14T00:47:51;15.74;85.49
67942;SHT31;54731;42.600;23.476;2023-06-14T00:50:18;15.74;85.44
67942;SHT31;54731;42.600;23.476;2023-06-14T00:52:45;15.79;85.47
67942;SHT31;54731;42.600;23.476;2023-06-14T00:55:10;15.77;85.34
67942;SHT31;54731;42.600;23.476;2023-06-14T00:57:36;15.76;85.20
67942;SHT31;54731;42.600;23.476;2023-06-14T01:00:01;15.77;85.33
67942;SHT31;54731;42.600;23.476;2023-06-14T01:02:27;15.73;85.32
67942;SHT31;54731;42.600;23.476;2023-06-14T01:04:52;15.79;85.34
67942;SHT31;54731;42.600;23.476;2023-06-14T01:12:51;15.83;85.46
67942;SHT31;54731;42.600;23.476;2023-06-14T01:15:18;15.83;85.38
67942;SHT31;54731;42.600;23.476;2023-06-14T01:17:46;15.86;85.33
67942;SHT31;54731;42.600;23.476;2023-06-14T01:20:15;15.86;85.29
67942;SHT31;54731;42.600;23.476;2023-06-14T01:22:52;15.86;85.25
67942;SHT31;54731;42.600;23.476;2023-06-14T01:25:18;15.90;85.15
67942;SHT31;54731;42.600;23.476;2023-06-14T01:27:43;15.91;85.02
67942;SHT31;54731;42.600;23.476;2023-06-14T01:30:09;15.89;85.05
67942;SHT31;54731;42.600;23.476;2023-06-14T01:32:35;15.87;85.29
67942;SHT31;54731;42.600;23.476;2023-06-14T01:35:01;15.89;85.37
67942;SHT31;54731;42.600;23.476;2023-06-14T01:37:26;15.90;85.21
67942;SHT31;54731;42.600;23.476;2023-06-14T01:39:52;15.87;85.19
67942;SHT31;54731;42.600;23.476;2023-06-14T01:42:18;15.89;85.15
67942;SHT31;54731;42.600;23.476;2023-06-14T01:44:44;15.91;85.22
67942;SHT31;54731;42.600;23.476;2023-06-14T01:47:09;15.89;85.12
67942;SHT31;54731;42.600;23.476;2023-06-14T01:49:35;15.89;85.24
67942;SHT31;54731;42.600;23.476;2023-06-14T01:52:00;15.91;85.21
67942;SHT31;54731;42.600;23.476;2023-06-14T01:54:26;15.91;85.10
67942;SHT31;54731;42.600;23.476;2023-06-14T01:56:51;15.91;84.89
67942;SHT31;54731;42.600;23.476;2023-06-14T01:59:16;15.93;84.73
67942;SHT31;54731;42.600;23.476;2023-06-14T02:01:42;15.93;84.54
67942;SHT31;54731;42.600;23.476;2023-06-14T02:04:07;15.90;84.56
67942;SHT31;54731;42.600;23.476;2023-06-14T02:06:32;15.90;84.60
67942;SHT31;54731;42.600;23.476;2023-06-14T02:08:58;15.89;84.73
67942;SHT31;54731;42.600;23.476;2023-06-14T02:11:23;15.91;84.74
67942;SHT31;54731;42.600;23.476;2023-06-14T02:13:48;15.89;84.69
67942;SHT31;54731;42.600;23.476;2023-06-14T02:16:13;15.93;84.72
67942;SHT31;54731;42.600;23.476;2023-06-14T02:18:39;15.93;84.82
67942;SHT31;54731;42.600;23.476;2023-06-14T02:21:04;15.89;85.02
67942;SHT31;54731;42.600;23.476;2023-06-14T02:23:29;15.89;85.11
67942;SHT31;54731;42.600;23.476;2023-06-14T02:25:55;15.83;85.15
67942;SHT31;54731;42.600;23.476;2023-06-14T02:28:20;15.81;85.16
67942;SHT31;54731;42.600;23.476;2023-06-14T02:30:45;15.81;85.24
67942;SHT31;54731;42.600;23.476;2023-06-14T02:33:10;15.81;85.24
67942;SHT31;54731;42.600;23.476;2023-06-14T02:35:36;15.81;85.31
67942;SHT31;54731;42.600;23.476;2023-06-14T02:38:01;15.79;85.33
67942;SHT31;54731;42.600;23.476;2023-06-14T02:40:26;15.76;85.59
67942;SHT31;54731;42.600;23.476;2023-06-14T02:42:51;15.74;85.71
67942;SHT31;54731;42.600;23.476;2023-06-14T02:45:17;15.80;85.56
67942;SHT31;54731;42.600;23.476;2023-06-14T02:47:42;15.81;85.22
67942;SHT31;54731;42.600;23.476;2023-06-14T02:50:08;15.79;85.38
67942;SHT31;54731;42.600;23.476;2023-06-14T02:52:33;15.76;85.57
67942;SHT31;54731;42.600;23.476;2023-06-14T02:54:59;15.77;85.64
67942;SHT31;54731;42.600;23.476;2023-06-14T02:57:24;15.81;85.81
67942;SHT31;54731;42.600;23.476;2023-06-14T02:59:49;15.84;85.80
67942;SHT31;54731;42.600;23.476;2023-06-14T03:02:15;15.81;85.82
67942;SHT31;54731;42.600;23.476;2023-06-14T03:04:40;15.80;85.75
67942;SHT31;54731;42.600;23.476;2023-06-14T03:07:05;15.76;85.82
67942;SHT31;54731;42.600;23.476;2023-06-14T03:09:31;15.77;85.81
67942;SHT31;54731;42.600;23.476;2023-06-14T03:11:56;15.77;85.66
67942;SHT31;54731;42.600;23.476;2023-06-14T03:14:21;15.79;85.52
67942;SHT31;54731;42.600;23.476;2023-06-14T03:16:46;15.80;85.52
67942;SHT31;54731;42.600;23.476;2023-06-14T03:19:12;15.81;85.52
67942;SHT31;54731;42.600;23.476;2023-06-14T03:21:37;15.83;85.43
67942;SHT31;54731;42.600;23.476;2023-06-14T03:24:02;15.90;85.40
67942;SHT31;54731;42.600;23.476;2023-06-14T03:26:28;15.89;85.40
67942;SHT31;54731;42.600;23.476;2023-06-14T03:28:53;15.87;85.41
67942;SHT31;54731;42.600;23.476;2023-06-14T03:31:18;15.87;85.60
67942;SHT31;54731;42.600;23.476;2023-06-14T03:33:44;15.86;85.66
67942;SHT31;54731;42.600;23.476;2023-06-14T03:36:09;15.81;85.70
67942;SHT31;54731;42.600;23.476;2023-06-14T03:38:34;15.80;85.79
67942;SHT31;54731;42.600;23.476;2023-06-14T03:41:00;15.84;85.73
67942;SHT31;54731;42.600;23.476;2023-06-14T03:43:25;15.84;85.77
67942;SHT31;54731;42.600;23.476;2023-06-14T03:45:50;15.86;85.80
67942;SHT31;54731;42.600;23.476;2023-06-14T03:48:16;15.89;85.72
67942;SHT31;54731;42.600;23.476;2023-06-14T03:50:41;15.91;85.74
67942;SHT31;54731;42.600;23.476;2023-06-14T03:53:07;15.89;86.37
67942;SHT31;54731;42.600;23.476;2023-06-14T03:55:32;15.90;86.49
67942;SHT31;54731;42.600;23.476;2023-06-14T03:57:57;15.93;86.40
67942;SHT31;54731;42.600;23.476;2023-06-14T04:00:23;15.96;86.34
67942;SHT31;54731;42.600;23.476;2023-06-14T04:02:48;15.96;86.45
67942;SHT31;54731;42.600;23.476;2023-06-14T04:05:13;16.01;86.41
67942;SHT31;54731;42.600;23.476;2023-06-14T04:07:39;15.97;86.36
67942;SHT31;54731;42.600;23.476;2023-06-14T04:10:05;15.97;86.37
67942;SHT31;54731;42.600;23.476;2023-06-14T04:12:30;15.97;86.39
67942;SHT31;54731;42.600;23.476;2023-06-14T04:14:56;15.91;86.82
67942;SHT31;54731;42.600;23.476;2023-06-14T04:17:21;15.89;87.11
67942;SHT31;54731;42.600;23.476;2023-06-14T04:19:46;15.81;87.53
67942;SHT31;54731;42.600;23.476;2023-06-14T04:22:12;15.87;87.60
67942;SHT31;54731;42.600;23.476;2023-06-14T04:24:37;15.84;87.57
67942;SHT31;54731;42.600;23.476;2023-06-14T04:27:02;15.84;87.24
67942;SHT31;54731;42.600;23.476;2023-06-14T04:29:28;15.76;87.42
67942;SHT31;54731;42.600;23.476;2023-06-14T04:31:54;15.74;87.65
67942;SHT31;54731;42.600;23.476;2023-06-14T04:34:19;15.81;87.57
67942;SHT31;54731;42.600;23.476;2023-06-14T04:36:45;15.91;87.27
67942;SHT31;54731;42.600;23.476;2023-06-14T04:39:10;15.89;86.92
67942;SHT31;54731;42.600;23.476;2023-06-14T04:41:35;15.89;86.88
67942;SHT31;54731;42.600;23.476;2023-06-14T04:44:01;15.98;86.80
67942;SHT31;54731;42.600;23.476;2023-06-14T04:46:27;16.05;86.57
67942;SHT31;54731;42.600;23.476;2023-06-14T04:48:52;16.10;86.39
67942;SHT31;54731;42.600;23.476;2023-06-14T04:51:18;16.12;86.28
67942;SHT31;54731;42.600;23.476;2023-06-14T04:53:43;16.15;85.96
67942;SHT31;54731;42.600;23.476;2023-06-14T04:56:08;16.18;85.83
67942;SHT31;54731;42.600;23.476;2023-06-14T04:58:34;16.24;85.67
67942;SHT31;54731;42.600;23.476;2023-06-14T05:00:59;16.26;85.57
67942;SHT31;54731;42.600;23.476;2023-06-14T05:03:25;16.31;85.36
67942;SHT31;54731;42.600;23.476;2023-06-14T05:05:50;16.35;85.21
67942;SHT31;54731;42.600;23.476;2023-06-14T05:08:16;16.35;85.11
67942;SHT31;54731;42.600;23.476;2023-06-14T05:10:41;16.41;84.95
67942;SHT31;54731;42.600;23.476;2023-06-14T05:13:07;16.48;84.81
67942;SHT31;54731;42.600;23.476;2023-06-14T05:15:32;16.63;84.30
67942;SHT31;54731;42.600;23.476;2023-06-14T05:17:57;16.65;84.21
67942;SHT31;54731;42.600;23.476;2023-06-14T05:20:24;16.73;84.14
67942;SHT31;54731;42.600;23.476;2023-06-14T05:22:49;16.82;83.69
67942;SHT31;54731;42.600;23.476;2023-06-14T05:25:15;16.96;83.38
67942;SHT31;54731;42.600;23.476;2023-06-14T05:27:40;17.02;82.84
67942;SHT31;54731;42.600;23.476;2023-06-14T05:30:06;17.09;82.36
67942;SHT31;54731;42.600;23.476;2023-06-14T05:32:31;17.13;82.40
67942;SHT31;54731;42.600;23.476;2023-06-14T05:34:57;17.24;82.29
67942;SHT31;54731;42.600;23.476;2023-06-14T05:37:22;17.37;81.82
67942;SHT31;54731;42.600;23.476;2023-06-14T05:39:47;17.50;81.60
67942;SHT31;54731;42.600;23.476;2023-06-14T05:42:12;17.60;81.53
67942;SHT31;54731;42.600;23.476;2023-06-14T05:44:38;17.71;81.37
67942;SHT31;54731;42.600;23.476;2023-06-14T05:47:03;17.74;81.02
67942;SHT31;54731;42.600;23.476;2023-06-14T05:49:29;17.74;81.30
67942;SHT31;54731;42.600;23.476;2023-06-14T05:51:54;17.64;80.84
67942;SHT31;54731;42.600;23.476;2023-06-14T05:54:19;17.74;81.43
67942;SHT31;54731;42.600;23.476;2023-06-14T05:56:44;17.84;81.05
67942;SHT31;54731;42.600;23.476;2023-06-14T05:59:10;17.95;80.33
67942;SHT31;54731;42.600;23.476;2023-06-14T06:01:35;17.82;80.57
67942;SHT31;54731;42.600;23.476;2023-06-14T06:04:00;17.84;80.74
67942;SHT31;54731;42.600;23.476;2023-06-14T06:06:25;17.90;80.62
67942;SHT31;54731;42.600;23.476;2023-06-14T06:08:51;17.91;80.66
67942;SHT31;54731;42.600;23.476;2023-06-14T06:11:16;17.92;80.53
67942;SHT31;54731;42.600;23.476;2023-06-14T06:13:41;17.95;80.19
67942;SHT31;54731;42.600;23.476;2023-06-14T06:16:07;18.00;80.03
67942;SHT31;54731;42.600;23.476;2023-06-14T06:18:32;18.02;79.86
67942;SHT31;54731;42.600;23.476;2023-06-14T06:20:58;17.91;80.08
67942;SHT31;54731;42.600;23.476;2023-06-14T06:23:23;17.95;80.25
67942;SHT31;54731;42.600;23.476;2023-06-14T06:25:48;18.01;80.00
67942;SHT31;54731;42.600;23.476;2023-06-14T06:28:13;18.04;79.81
67942;SHT31;54731;42.600;23.476;2023-06-14T06:30:39;17.98;80.16
67942;SHT31;54731;42.600;23.476;2023-06-14T06:33:04;18.02;80.09
67942;SHT31;54731;42.600;23.476;2023-06-14T06:35:29;17.98;80.25
67942;SHT31;54731;42.600;23.476;2023-06-14T06:37:55;18.00;80.34
67942;SHT31;54731;42.600;23.476;2023-06-14T06:40:20;17.98;80.32
67942;SHT31;54731;42.600;23.476;2023-06-14T06:42:45;18.01;80.09
67942;SHT31;54731;42.600;23.476;2023-06-14T06:45:11;18.06;79.56
67942;SHT31;54731;42.600;23.476;2023-06-14T06:47:36;17.97;79.49
67942;SHT31;54731;42.600;23.476;2023-06-14T06:50:01;17.97;79.82
67942;SHT31;54731;42.600;23.476;2023-06-14T06:52:27;17.97;79.76
67942;SHT31;54731;42.600;23.476;2023-06-14T06:54:52;18.00;80.34
67942;SHT31;54731;42.600;23.476;2023-06-14T06:57:17;18.11;80.26
67942;SHT31;54731;42.600;23.476;2023-06-14T06:59:42;18.06;79.53
67942;SHT31;54731;42.600;23.476;2023-06-14T07:02:08;18.15;79.30
67942;SHT31;54731;42.600;23.476;2023-06-14T07:04:33;18.28;79.05
67942;SHT31;54731;42.600;23.476;2023-06-14T07:06:58;18.41;78.28
67942;SHT31;54731;42.600;23.476;2023-06-14T07:09:24;18.45;78.05
67942;SHT31;54731;42.600;23.476;2023-06-14T07:11:49;18.55;77.95
67942;SHT31;54731;42.600;23.476;2023-06-14T07:14:14;18.48;78.05
67942;SHT31;54731;42.600;23.476;2023-06-14T07:16:39;18.63;78.27
67942;SHT31;54731;42.600;23.476;2023-06-14T07:19:05;18.80;78.11
67942;SHT31;54731;42.600;23.476;2023-06-14T07:21:30;19.00;77.71
67942;SHT31;54731;42.600;23.476;2023-06-14T07:23:56;19.11;76.14
67942;SHT31;54731;42.600;23.476;2023-06-14T07:26:22;19.16;75.64
67942;SHT31;54731;42.600;23.476;2023-06-14T07:28:48;19.07;75.78
67942;SHT31;54731;42.600;23.476;2023-06-14T07:31:14;19.26;75.65
67942;SHT31;54731;42.600;23.476;2023-06-14T07:33:40;19.23;75.89
67942;SHT31;54731;42.600;23.476;2023-06-14T07:36:06;19.24;75.53
67942;SHT31;54731;42.600;23.476;2023-06-14T07:38:31;19.41;75.59
67942;SHT31;54731;42.600;23.476;2023-06-14T07:40:56;19.54;75.36
67942;SHT31;54731;42.600;23.476;2023-06-14T07:43:21;19.67;74.77
67942;SHT31;54731;42.600;23.476;2023-06-14T07:45:47;19.74;74.25
67942;SHT31;54731;42.600;23.476;2023-06-14T07:48:12;19.71;74.06
67942;SHT31;54731;42.600;23.476;2023-06-14T07:50:37;19.78;74.24
67942;SHT31;54731;42.600;23.476;2023-06-14T07:53:03;19.72;73.91
67942;SHT31;54731;42.600;23.476;2023-06-14T07:55:28;19.81;74.87
67942;SHT31;54731;42.600;23.476;2023-06-14T07:57:53;19.68;74.17
67942;SHT31;54731;42.600;23.476;2023-06-14T08:00:19;19.69;73.38
67942;SHT31;54731;42.600;23.476;2023-06-14T08:02:45;19.81;73.61
67942;SHT31;54731;42.600;23.476;2023-06-14T08:05:10;19.77;73.72
67942;SHT31;54731;42.600;23.476;2023-06-14T08:07:35;19.88;73.98
67942;SHT31;54731;42.600;23.476;2023-06-14T08:10:01;19.98;73.39
67942;SHT31;54731;42.600;23.476;2023-06-14T08:12:26;20.06;71.97
67942;SHT31;54731;42.600;23.476;2023-06-14T08:14:51;20.06;72.35
67942;SHT31;54731;42.600;23.476;2023-06-14T08:17:17;20.18;72.29
67942;SHT31;54731;42.600;23.476;2023-06-14T08:19:42;20.20;71.56
67942;SHT31;54731;42.600;23.476;2023-06-14T08:22:07;20.16;71.98
67942;SHT31;54731;42.600;23.476;2023-06-14T08:24:32;20.25;72.42
67942;SHT31;54731;42.600;23.476;2023-06-14T08:26:58;20.30;71.77
67942;SHT31;54731;42.600;23.476;2023-06-14T08:29:23;20.42;71.96
67942;SHT31;54731;42.600;23.476;2023-06-14T08:31:48;20.57;72.37
67942;SHT31;54731;42.600;23.476;2023-06-14T08:34:14;20.69;71.36
67942;SHT31;54731;42.600;23.476;2023-06-14T08:36:39;20.56;70.87
67942;SHT31;54731;42.600;23.476;2023-06-14T08:39:09;20.70;71.22
67942;SHT31;54731;42.600;23.476;2023-06-14T08:41:35;20.83;70.89
67942;SHT31;54731;42.600;23.476;2023-06-14T08:44:00;21.04;69.44
67942;SHT31;54731;42.600;23.476;2023-06-14T08:46:26;21.15;69.32
67942;SHT31;54731;42.600;23.476;2023-06-14T08:48:52;21.24;69.14
67942;SHT31;54731;42.600;23.476;2023-06-14T08:51:18;21.37;68.68
67942;SHT31;54731;42.600;23.476;2023-06-14T08:53:44;21.41;68.11
67942;SHT31;54731;42.600;23.476;2023-06-14T08:56:10;21.45;67.32
67942;SHT31;54731;42.600;23.476;2023-06-14T08:58:35;21.65;67.82
67942;SHT31;54731;42.600;23.476;2023-06-14T09:01:01;21.78;67.58
67942;SHT31;54731;42.600;23.476;2023-06-14T09:03:27;21.71;66.73
67942;SHT31;54731;42.600;23.476;2023-06-14T09:05:52;21.78;67.46
67942;SHT31;54731;42.600;23.476;2023-06-14T09:08:17;21.88;66.87
67942;SHT31;54731;42.600;23.476;2023-06-14T09:10:44;22.13;66.75
67942;SHT31;54731;42.600;23.476;2023-06-14T09:13:09;22.22;65.98
67942;SHT31;54731;42.600;23.476;2023-06-14T09:15:35;22.29;64.99
67942;SHT31;54731;42.600;23.476;2023-06-14T09:18:03;22.39;64.80
67942;SHT31;54731;42.600;23.476;2023-06-14T09:20:30;22.51;64.76
67942;SHT31;54731;42.600;23.476;2023-06-14T09:22:55;22.60;64.55
67942;SHT31;54731;42.600;23.476;2023-06-14T09:25:23;22.61;63.37
67942;SHT31;54731;42.600;23.476;2023-06-14T09:27:48;22.59;64.02
67942;SHT31;54731;42.600;23.476;2023-06-14T09:30:13;22.71;64.45
67942;SHT31;54731;42.600;23.476;2023-06-14T09:32:39;22.77;63.88
67942;SHT31;54731;42.600;23.476;2023-06-14T09:35:08;22.78;63.40
67942;SHT31;54731;42.600;23.476;2023-06-14T09:37:34;22.91;62.70
67942;SHT31;54731;42.600;23.476;2023-06-14T09:40:00;23.01;61.23
67942;SHT31;54731;42.600;23.476;2023-06-14T09:42:26;23.01;61.40
67942;SHT31;54731;42.600;23.476;2023-06-14T09:44:52;23.05;62.45
67942;SHT31;54731;42.600;23.476;2023-06-14T09:47:18;23.04;62.85
67942;SHT31;54731;42.600;23.476;2023-06-14T09:49:44;22.95;61.66
67942;SHT31;54731;42.600;23.476;2023-06-14T09:52:17;22.86;61.24
67942;SHT31;54731;42.600;23.476;2023-06-14T09:54:44;23.01;62.06
67942;SHT31;54731;42.600;23.476;2023-06-14T09:57:11;23.10;62.88
67942;SHT31;54731;42.600;23.476;2023-06-14T09:59:36;22.81;63.67
67942;SHT31;54731;42.600;23.476;2023-06-14T10:02:14;22.97;64.81
67942;SHT31;54731;42.600;23.476;2023-06-14T10:04:46;22.63;62.69
67942;SHT31;54731;42.600;23.476;2023-06-14T10:07:19;22.49;63.11
67942;SHT31;54731;42.600;23.476;2023-06-14T10:09:45;22.50;65.05
67942;SHT31;54731;42.600;23.476;2023-06-14T10:12:12;22.54;65.06
67942;SHT31;54731;42.600;23.476;2023-06-14T10:14:38;22.74;65.35
67942;SHT31;54731;42.600;23.476;2023-06-14T10:17:07;22.81;64.13
67942;SHT31;54731;42.600;23.476;2023-06-14T10:19:40;22.84;62.93
67942;SHT31;54731;42.600;23.476;2023-06-14T10:22:29;22.88;62.77
67942;SHT31;54731;42.600;23.476;2023-06-14T10:24:56;22.93;61.18
67942;SHT31;54731;42.600;23.476;2023-06-14T10:27:21;22.91;61.38
67942;SHT31;54731;42.600;23.476;2023-06-14T10:32:17;23.24;61.47
67942;SHT31;54731;42.600;23.476;2023-06-14T10:34:43;23.52;61.44
67942;SHT31;54731;42.600;23.476;2023-06-14T10:37:13;23.80;60.51
67942;SHT31;54731;42.600;23.476;2023-06-14T10:39:43;23.97;59.58
67942;SHT31;54731;42.600;23.476;2023-06-14T10:42:09;23.73;61.21
67942;SHT31;54731;42.600;23.476;2023-06-14T10:47:07;23.70;59.81
67942;SHT31;54731;42.600;23.476;2023-06-14T10:49:40;23.97;59.79
67942;SHT31;54731;42.600;23.476;2023-06-14T10:52:14;24.09;59.85
67942;SHT31;54731;42.600;23.476;2023-06-14T10:57:26;24.29;59.33
67942;SHT31;54731;42.600;23.476;2023-06-14T10:59:51;24.39;57.54
67942;SHT31;54731;42.600;23.476;2023-06-14T11:04:52;24.59;56.55
67942;SHT31;54731;42.600;23.476;2023-06-14T11:10:18;24.74;57.47
67942;SHT31;54731;42.600;23.476;2023-06-14T11:12:48;25.10;55.99
67942;SHT31;54731;42.600;23.476;2023-06-14T11:15:14;25.52;56.77
67942;SHT31;54731;42.600;23.476;2023-06-14T11:17:48;25.93;55.68
67942;SHT31;54731;42.600;23.476;2023-06-14T11:20:14;25.98;54.90
67942;SHT31;54731;42.600;23.476;2023-06-14T11:22:43;25.98;53.62
67942;SHT31;54731;42.600;23.476;2023-06-14T11:25:09;26.36;54.74
67942;SHT31;54731;42.600;23.476;2023-06-14T11:27:34;26.58;55.02
67942;SHT31;54731;42.600;23.476;2023-06-14T11:30:00;27.12;50.86
67942;SHT31;54731;42.600;23.476;2023-06-14T11:32:25;27.63;50.99
67942;SHT31;54731;42.600;23.476;2023-06-14T11:34:50;28.01;51.39
67942;SHT31;54731;42.600;23.476;2023-06-14T11:37:16;28.41;51.06
67942;SHT31;54731;42.600;23.476;2023-06-14T11:39:44;28.78;49.32
67942;SHT31;54731;42.600;23.476;2023-06-14T11:42:14;28.81;49.33
67942;SHT31;54731;42.600;23.476;2023-06-14T11:44:40;29.13;47.37
67942;SHT31;54731;42.600;23.476;2023-06-14T11:47:05;29.22;45.97
67942;SHT31;54731;42.600;23.476;2023-06-14T11:49:35;29.37;46.78
67942;SHT31;54731;42.600;23.476;2023-06-14T11:52:00;28.89;46.18
67942;SHT31;54731;42.600;23.476;2023-06-14T11:54:26;29.13;46.90
67942;SHT31;54731;42.600;23.476;2023-06-14T11:56:51;29.53;46.99
67942;SHT31;54731;42.600;23.476;2023-06-14T11:59:16;30.15;46.64
67942;SHT31;54731;42.600;23.476;2023-06-14T12:01:43;30.45;45.88
67942;SHT31;54731;42.600;23.476;2023-06-14T12:04:08;30.41;44.87
67942;SHT31;54731;42.600;23.476;2023-06-14T12:06:34;30.14;43.59
67942;SHT31;54731;42.600;23.476;2023-06-14T12:08:59;30.05;46.26
67942;SHT31;54731;42.600;23.476;2023-06-14T12:11:31;30.64;46.51
67942;SHT31;54731;42.600;23.476;2023-06-14T12:13:57;30.48;43.51
67942;SHT31;54731;42.600;23.476;2023-06-14T12:16:30;30.39;43.94
67942;SHT31;54731;42.600;23.476;2023-06-14T12:18:55;30.29;44.34
67942;SHT31;54731;42.600;23.476;2023-06-14T12:21:22;29.72;44.39
67942;SHT31;54731;42.600;23.476;2023-06-14T12:23:49;29.25;45.03
67942;SHT31;54731;42.600;23.476;2023-06-14T12:26:18;29.36;45.37
67942;SHT31;54731;42.600;23.476;2023-06-14T12:28:45;29.02;45.46
67942;SHT31;54731;42.600;23.476;2023-06-14T12:31:12;29.16;46.40
67942;SHT31;54731;42.600;23.476;2023-06-14T12:33:41;29.20;46.69
67942;SHT31;54731;42.600;23.476;2023-06-14T12:36:10;28.92;46.79
67942;SHT31;54731;42.600;23.476;2023-06-14T12:38:36;28.41;47.48
67942;SHT31;54731;42.600;23.476;2023-06-14T12:41:01;28.07;49.19
67942;SHT31;54731;42.600;23.476;2023-06-14T12:43:27;27.73;51.52
67942;SHT31;54731;42.600;23.476;2023-06-14T12:45:52;27.83;52.04
67942;SHT31;54731;42.600;23.476;2023-06-14T12:48:17;27.63;51.92
67942;SHT31;54731;42.600;23.476;2023-06-14T12:50:43;27.39;53.04
67942;SHT31;54731;42.600;23.476;2023-06-14T12:53:08;27.26;53.91
67942;SHT31;54731;42.600;23.476;2023-06-14T12:55:34;27.15;55.27
67942;SHT31;54731;42.600;23.476;2023-06-14T12:57:59;26.91;56.96
67942;SHT31;54731;42.600;23.476;2023-06-14T13:00:24;26.62;58.70
67942;SHT31;54731;42.600;23.476;2023-06-14T13:02:50;26.27;58.76
67942;SHT31;54731;42.600;23.476;2023-06-14T13:05:15;25.89;59.67
67942;SHT31;54731;42.600;23.476;2023-06-14T13:07:40;25.69;60.60
67942;SHT31;54731;42.600;23.476;2023-06-14T13:10:06;25.42;61.16
67942;SHT31;54731;42.600;23.476;2023-06-14T13:12:31;25.12;62.44
67942;SHT31;54731;42.600;23.476;2023-06-14T13:14:56;24.84;62.80
67942;SHT31;54731;42.600;23.476;2023-06-14T13:17:22;24.53;63.93
67942;SHT31;54731;42.600;23.476;2023-06-14T13:19:47;24.39;64.71
67942;SHT31;54731;42.600;23.476;2023-06-14T13:22:12;24.00;65.83
67942;SHT31;54731;42.600;23.476;2023-06-14T13:24:38;23.63;67.68
67942;SHT31;54731;42.600;23.476;2023-06-14T13:27:03;23.21;68.51
67942;SHT31;54731;42.600;23.476;2023-06-14T13:29:28;22.97;69.15
67942;SHT31;54731;42.600;23.476;2023-06-14T13:31:54;22.71;69.32
67942;SHT31;54731;42.600;23.476;2023-06-14T13:34:19;22.61;69.23
67942;SHT31;54731;42.600;23.476;2023-06-14T13:36:45;22.36;68.68
67942;SHT31;54731;42.600;23.476;2023-06-14T13:39:10;22.20;68.78
67942;SHT31;54731;42.600;23.476;2023-06-14T13:41:35;22.08;67.35
67942;SHT31;54731;42.600;23.476;2023-06-14T13:44:01;21.90;66.23
67942;SHT31;54731;42.600;23.476;2023-06-14T13:46:26;21.66;68.09
67942;SHT31;54731;42.600;23.476;2023-06-14T13:48:52;21.49;70.35
67942;SHT31;54731;42.600;23.476;2023-06-14T13:51:18;21.27;71.07
67942;SHT31;54731;42.600;23.476;2023-06-14T13:53:45;21.15;71.61
67942;SHT31;54731;42.600;23.476;2023-06-14T13:56:11;21.03;72.69
67942;SHT31;54731;42.600;23.476;2023-06-14T13:58:37;20.95;73.55
67942;SHT31;54731;42.600;23.476;2023-06-14T14:01:03;20.84;74.20
67942;SHT31;54731;42.600;23.476;2023-06-14T14:03:28;20.69;74.73
67942;SHT31;54731;42.600;23.476;2023-06-14T14:05:53;20.60;75.29
67942;SHT31;54731;42.600;23.476;2023-06-14T14:08:19;20.50;75.70
67942;SHT31;54731;42.600;23.476;2023-06-14T14:10:44;20.46;75.86
67942;SHT31;54731;42.600;23.476;2023-06-14T14:13:09;20.44;75.84
67942;SHT31;54731;42.600;23.476;2023-06-14T14:15:34;20.40;76.17
67942;SHT31;54731;42.600;23.476;2023-06-14T14:18:00;20.36;76.42
67942;SHT31;54731;42.600;23.476;2023-06-14T14:20:25;20.33;76.54
67942;SHT31;54731;42.600;23.476;2023-06-14T14:22:50;20.23;76.80
67942;SHT31;54731;42.600;23.476;2023-06-14T14:25:16;20.25;76.82
67942;SHT31;54731;42.600;23.476;2023-06-14T14:27:41;20.22;76.70
67942;SHT31;54731;42.600;23.476;2023-06-14T14:30:07;20.22;75.87
67942;SHT31;54731;42.600;23.476;2023-06-14T14:32:32;20.16;76.40
67942;SHT31;54731;42.600;23.476;2023-06-14T14:34:58;19.91;76.35
67942;SHT31;54731;42.600;23.476;2023-06-14T14:37:23;19.82;76.86
67942;SHT31;54731;42.600;23.476;2023-06-14T14:39:48;19.81;77.39
67942;SHT31;54731;42.600;23.476;2023-06-14T14:42:14;19.75;77.00
67942;SHT31;54731;42.600;23.476;2023-06-14T14:44:39;19.78;77.43
67942;SHT31;54731;42.600;23.476;2023-06-14T14:47:05;19.85;77.45
67942;SHT31;54731;42.600;23.476;2023-06-14T14:49:31;19.85;77.63
67942;SHT31;54731;42.600;23.476;2023-06-14T14:51:56;19.86;77.68
67942;SHT31;54731;42.600;23.476;2023-06-14T14:54:22;19.88;77.67
67942;SHT31;54731;42.600;23.476;2023-06-14T14:56:47;19.92;77.49
67942;SHT31;54731;42.600;23.476;2023-06-14T14:59:12;19.91;77.71
67942;SHT31;54731;42.600;23.476;2023-06-14T15:01:38;19.91;77.87
67942;SHT31;54731;42.600;23.476;2023-06-14T15:04:03;19.88;77.96
67942;SHT31;54731;42.600;23.476;2023-06-14T15:06:29;19.89;77.20
67942;SHT31;54731;42.600;23.476;2023-06-14T15:08:54;19.86;76.43
67942;SHT31;54731;42.600;23.476;2023-06-14T15:11:19;19.89;76.63
67942;SHT31;54731;42.600;23.476;2023-06-14T15:13:44;19.85;76.23
67942;SHT31;54731;42.600;23.476;2023-06-14T15:16:10;19.83;76.80
67942;SHT31;54731;42.600;23.476;2023-06-14T15:18:35;19.82;76.91
67942;SHT31;54731;42.600;23.476;2023-06-14T15:21:00;19.78;77.82
67942;SHT31;54731;42.600;23.476;2023-06-14T15:23:26;19.72;77.44
67942;SHT31;54731;42.600;23.476;2023-06-14T15:25:51;19.74;77.61